sensor_id;sensor_type;location;lat;lon;timestamp;temperature;humidity
66013;DHT22;52783;50.502;8.190;2023-07-29T00:00:43;18.30;99.90
66013;DHT22;52783;50.502;8.190;2023-07-29T00:03:09;18.30;99.90
66013;DHT22;52783;50.502;8.190;2023-07-29T00:05:36;18.30;99.90
66013;DHT22;52783;50.502;8.190;2023-07-29T00:08:02;18.30;99.90
66013;DHT22;52783;50.502;8.190;2023-07-29T00:10:27;18.20;99.90
66013;DHT22;52783;50.502;8.190;2023-07-29T00:12:53;18.30;99.90
66013;DHT22;52783;50.502;8.190;2023-07-29T00:15:18;18.30;99.90
66013;DHT22;52783;50.502;8.190;2023-07-29T00:17:44;18.30;99.90
66013;DHT22;52783;50.502;8.190;2023-07-29T00:20:09;18.30;99.90
66013;DHT22;52783;50.502;8.190;2023-07-29T00:22:35;18.30;99.90
66013;DHT22;52783;50.502;8.190;2023-07-29T00:25:01;18.30;99.90
66013;DHT22;52783;50.502;8.190;2023-07-29T00:27:26;18.30;99.90
66013;DHT22;52783;50.502;8.190;2023-07-29T00:29:52;18.30;99.90
66013;DHT22;52783;50.502;8.190;2023-07-29T00:32:17;18.30;99.90
66013;DHT22;52783;50.502;8.190;2023-07-29T00:34:43;18.30;99.90
66013;DHT22;52783;50.502;8.190;2023-07-29T00:37:08;18.30;99.90
66013;DHT22;52783;50.502;8.190;2023-07-29T00:39:34;18.30;99.90
66013;DHT22;52783;50.502;8.190;2023-07-29T00:41:59;18.20;99.90
66013;DHT22;52783;50.502;8.190;2023-07-29T00:44:25;18.20;99.90
66013;DHT22;52783;50.502;8.190;2023-07-29T00:46:52;18.10;99.90
66013;DHT22;52783;50.502;8.190;2023-07-29T00:49:19;18.30;99.90
66013;DHT22;52783;50.502;8.190;2023-07-29T00:51:45;18.30;99.90
66013;DHT22;52783;50.502;8.190;2023-07-29T00:54:10;18.30;99.90
66013;DHT22;52783;50.502;8.190;2023-07-29T00:56:36;18.30;99.90
66013;DHT22;52783;50.502;8.190;2023-07-29T00:59:03;18.40;99.90
66013;DHT22;52783;50.502;8.190;2023-07-29T01:01:29;18.30;99.90
66013;DHT22;52783;50.502;8.190;2023-07-29T01:03:55;18.30;99.90
66013;DHT22;52783;50.502;8.190;2023-07-29T01:06:33;18.30;99.90
66013;DHT22;52783;50.502;8.190;2023-07-29T01:09:04;18.30;99.90
66013;DHT22;52783;50.502;8.190;2023-07-29T01:11:33;18.30;99.90
66013;DHT22;52783;50.502;8.190;2023-07-29T01:16:48;18.40;99.90
66013;DHT22;52783;50.502;8.190;2023-07-29T01:19:55;18.40;99.90
66013;DHT22;52783;50.502;8.190;2023-07-29T01:22:23;18.30;99.90
66013;DHT22;52783;50.502;8.190;2023-07-29T01:24:49;18.30;99.90
66013;DHT22;52783;50.502;8.190;2023-07-29T01:27:15;18.30;99.90
66013;DHT22;52783;50.502;8.190;2023-07-29T01:29:40;18.30;99.90
66013;DHT22;52783;50.502;8.190;2023-07-29T01:32:17;18.30;99.90
66013;DHT22;52783;50.502;8.190;2023-07-29T01:34:48;18.30;99.90
66013;DHT22;52783;50.502;8.190;2023-07-29T01:37:20;18.30;99.90
66013;DHT22;52783;50.502;8.190;2023-07-29T01:39:48;18.20;99.90
66013;DHT22;52783;50.502;8.190;2023-07-29T01:42:15;18.20;99.90
66013;DHT22;52783;50.502;8.190;2023-07-29T01:44:41;18.20;99.90
66013;DHT22;52783;50.502;8.190;2023-07-29T01:47:08;18.20;99.90
66013;DHT22;52783;50.502;8.190;2023-07-29T01:49:33;18.20;99.90
66013;DHT22;52783;50.502;8.190;2023-07-29T01:51:59;18.20;99.90
66013;DHT22;52783;50.502;8.190;2023-07-29T01:54:24;18.10;99.90
66013;DHT22;52783;50.502;8.190;2023-07-29T01:56:50;18.00;99.90
66013;DHT22;52783;50.502;8.190;2023-07-29T01:59:16;18.00;99.90
66013;DHT22;52783;50.502;8.190;2023-07-29T02:01:42;18.00;99.90
66013;DHT22;52783;50.502;8.190;2023-07-29T02:04:08;17.90;99.90
66013;DHT22;52783;50.502;8.190;2023-07-29T02:06:33;18.00;99.90
66013;DHT22;52783;50.502;8.190;2023-07-29T02:08:59;17.90;99.90
66013;DHT22;52783;50.502;8.190;2023-07-29T02:11:24;17.90;99.90
66013;DHT22;52783;50.502;8.190;2023-07-29T02:13:53;18.00;99.90
66013;DHT22;52783;50.502;8.190;2023-07-29T02:16:19;17.90;99.90
66013;DHT22;52783;50.502;8.190;2023-07-29T02:18:45;18.00;99.90
66013;DHT22;52783;50.502;8.190;2023-07-29T02:21:10;18.00;99.90
66013;DHT22;52783;50.502;8.190;2023-07-29T02:23:36;18.00;99.90
66013;DHT22;52783;50.502;8.190;2023-07-29T02:26:01;18.00;99.90
66013;DHT22;52783;50.502;8.190;2023-07-29T02:28:27;18.00;99.90
66013;DHT22;52783;50.502;8.190;2023-07-29T02:31:15;18.10;99.90
66013;DHT22;52783;50.502;8.190;2023-07-29T02:33:42;18.10;99.90
66013;DHT22;52783;50.502;8.190;2023-07-29T02:36:07;18.10;99.90
66013;DHT22;52783;50.502;8.190;2023-07-29T02:38:33;18.20;99.90
66013;DHT22;52783;50.502;8.190;2023-07-29T02:40:58;18.10;99.90
66013;DHT22;52783;50.502;8.190;2023-07-29T02:43:24;18.10;99.90
66013;DHT22;52783;50.502;8.190;2023-07-29T02:45:49;18.20;99.90
66013;DHT22;52783;50.502;8.190;2023-07-29T02:48:15;18.10;99.90
66013;DHT22;52783;50.502;8.190;2023-07-29T02:50:40;18.10;99.90
66013;DHT22;52783;50.502;8.190;2023-07-29T02:53:06;18.10;99.90
66013;DHT22;52783;50.502;8.190;2023-07-29T02:55:31;18.10;99.90
66013;DHT22;52783;50.502;8.190;2023-07-29T02:57:57;18.10;99.90
66013;DHT22;52783;50.502;8.190;2023-07-29T03:03:44;18.20;99.90
66013;DHT22;52783;50.502;8.190;2023-07-29T03:06:12;18.10;99.90
66013;DHT22;52783;50.502;8.190;2023-07-29T03:08:38;18.00;99.90
66013;DHT22;52783;50.502;8.190;2023-07-29T03:11:11;18.10;99.90
66013;DHT22;52783;50.502;8.190;2023-07-29T03:13:37;18.10;99.90
66013;DHT22;52783;50.502;8.190;2023-07-29T03:16:09;18.10;99.90
66013;DHT22;52783;50.502;8.190;2023-07-29T03:18:35;18.20;99.90
66013;DHT22;52783;50.502;8.190;2023-07-29T03:21:01;18.20;99.90
66013;DHT22;52783;50.502;8.190;2023-07-29T03:23:28;18.10;99.90
66013;DHT22;52783;50.502;8.190;2023-07-29T03:25:58;18.20;99.90
66013;DHT22;52783;50.502;8.190;2023-07-29T03:28:28;18.20;99.90
66013;DHT22;52783;50.502;8.190;2023-07-29T03:30:55;18.20;99.90
66013;DHT22;52783;50.502;8.190;2023-07-29T03:33:20;18.20;99.90
66013;DHT22;52783;50.502;8.190;2023-07-29T03:35:46;18.20;99.90
66013;DHT22;52783;50.502;8.190;2023-07-29T03:38:12;18.20;99.90
66013;DHT22;52783;50.502;8.190;2023-07-29T03:40:38;18.30;99.90
66013;DHT22;52783;50.502;8.190;2023-07-29T03:43:04;18.30;99.90
66013;DHT22;52783;50.502;8.190;2023-07-29T03:45:29;18.30;99.90
66013;DHT22;52783;50.502;8.190;2023-07-29T03:47:55;18.20;99.90
66013;DHT22;52783;50.502;8.190;2023-07-29T03:50:21;18.30;99.90
66013;DHT22;52783;50.502;8.190;2023-07-29T03:52:46;18.30;99.90
66013;DHT22;52783;50.502;8.190;2023-07-29T03:55:12;18.20;99.90
66013;DHT22;52783;50.502;8.190;2023-07-29T03:57:37;18.20;99.90
66013;DHT22;52783;50.502;8.190;2023-07-29T04:00:03;18.20;99.90
66013;DHT22;52783;50.502;8.190;2023-07-29T04:02:29;18.20;99.90
66013;DHT22;52783;50.502;8.190;2023-07-29T04:04:54;18.20;99.90
66013;DHT22;52783;50.502;8.190;2023-07-29T04:07:20;18.20;99.90
66013;DHT22;52783;50.502;8.190;2023-07-29T04:09:45;18.20;99.90
66013;DHT22;52783;50.502;8.190;2023-07-29T04:12:11;18.20;99.90
66013;DHT22;52783;50.502;8.190;2023-07-29T04:14:37;18.20;99.90
66013;DHT22;52783;50.502;8.190;2023-07-29T04:17:02;18.30;99.90
66013;DHT22;52783;50.502;8.190;2023-07-29T04:19:28;18.30;99.90
66013;DHT22;52783;50.502;8.190;2023-07-29T04:21:54;18.30;99.90
66013;DHT22;52783;50.502;8.190;2023-07-29T04:24:19;18.30;99.90
66013;DHT22;52783;50.502;8.190;2023-07-29T04:26:45;18.30;99.90
66013;DHT22;52783;50.502;8.190;2023-07-29T04:29:11;18.40;99.90
66013;DHT22;52783;50.502;8.190;2023-07-29T04:31:37;18.30;99.90
66013;DHT22;52783;50.502;8.190;2023-07-29T04:34:04;18.40;99.90
66013;DHT22;52783;50.502;8.190;2023-07-29T04:36:29;18.40;99.90
66013;DHT22;52783;50.502;8.190;2023-07-29T04:38:55;18.40;99.90
66013;DHT22;52783;50.502;8.190;2023-07-29T04:41:20;18.50;99.90
66013;DHT22;52783;50.502;8.190;2023-07-29T04:43:46;18.40;99.90
66013;DHT22;52783;50.502;8.190;2023-07-29T04:46:12;18.40;99.90
66013;DHT22;52783;50.502;8.190;2023-07-29T04:48:37;18.40;99.90
66013;DHT22;52783;50.502;8.190;2023-07-29T04:51:03;18.40;99.90
66013;DHT22;52783;50.502;8.190;2023-07-29T04:53:28;18.50;99.90
66013;DHT22;52783;50.502;8.190;2023-07-29T04:55:54;18.50;99.90
66013;DHT22;52783;50.502;8.190;2023-07-29T04:58:19;18.60;99.90
66013;DHT22;52783;50.502;8.190;2023-07-29T05:00:47;18.60;99.90
66013;DHT22;52783;50.502;8.190;2023-07-29T05:03:12;18.60;99.90
66013;DHT22;52783;50.502;8.190;2023-07-29T05:05:38;18.70;99.90
66013;DHT22;52783;50.502;8.190;2023-07-29T05:08:03;18.70;99.90
66013;DHT22;52783;50.502;8.190;2023-07-29T05:10:29;18.70;99.90
66013;DHT22;52783;50.502;8.190;2023-07-29T05:12:54;18.80;99.90
66013;DHT22;52783;50.502;8.190;2023-07-29T05:15:20;18.90;99.90
66013;DHT22;52783;50.502;8.190;2023-07-29T05:17:45;19.10;99.90
66013;DHT22;52783;50.502;8.190;2023-07-29T05:20:11;19.20;99.90
66013;DHT22;52783;50.502;8.190;2023-07-29T05:22:37;19.30;99.90
66013;DHT22;52783;50.502;8.190;2023-07-29T05:25:02;19.50;99.90
66013;DHT22;52783;50.502;8.190;2023-07-29T05:27:28;19.70;99.90
66013;DHT22;52783;50.502;8.190;2023-07-29T05:29:54;19.70;99.90
66013;DHT22;52783;50.502;8.190;2023-07-29T05:32:19;19.70;99.90
66013;DHT22;52783;50.502;8.190;2023-07-29T05:34:45;19.60;99.90
66013;DHT22;52783;50.502;8.190;2023-07-29T05:37:10;19.60;99.90
66013;DHT22;52783;50.502;8.190;2023-07-29T05:39:36;19.50;99.90
66013;DHT22;52783;50.502;8.190;2023-07-29T05:42:02;19.50;99.90
66013;DHT22;52783;50.502;8.190;2023-07-29T05:44:28;19.50;99.90
66013;DHT22;52783;50.502;8.190;2023-07-29T05:46:54;19.50;99.90
66013;DHT22;52783;50.502;8.190;2023-07-29T05:49:20;19.50;99.90
66013;DHT22;52783;50.502;8.190;2023-07-29T05:51:45;19.50;99.90
66013;DHT22;52783;50.502;8.190;2023-07-29T05:54:11;19.50;99.90
66013;DHT22;52783;50.502;8.190;2023-07-29T05:56:36;19.40;99.90
66013;DHT22;52783;50.502;8.190;2023-07-29T05:59:02;19.50;99.90
66013;DHT22;52783;50.502;8.190;2023-07-29T06:01:27;19.40;99.90
66013;DHT22;52783;50.502;8.190;2023-07-29T06:03:53;19.40;99.90
66013;DHT22;52783;50.502;8.190;2023-07-29T06:06:18;19.20;99.90
66013;DHT22;52783;50.502;8.190;2023-07-29T06:08:44;19.20;99.90
66013;DHT22;52783;50.502;8.190;2023-07-29T06:11:10;19.30;99.90
66013;DHT22;52783;50.502;8.190;2023-07-29T06:13:35;19.20;99.90
66013;DHT22;52783;50.502;8.190;2023-07-29T06:16:00;19.20;99.90
66013;DHT22;52783;50.502;8.190;2023-07-29T06:18:26;19.20;99.90
66013;DHT22;52783;50.502;8.190;2023-07-29T06:20:52;19.10;99.90
66013;DHT22;52783;50.502;8.190;2023-07-29T06:23:17;19.10;99.90
66013;DHT22;52783;50.502;8.190;2023-07-29T06:25:43;19.10;99.90
66013;DHT22;52783;50.502;8.190;2023-07-29T06:28:11;19.00;99.90
66013;DHT22;52783;50.502;8.190;2023-07-29T06:30:37;19.10;99.90
66013;DHT22;52783;50.502;8.190;2023-07-29T06:33:02;19.00;99.90
66013;DHT22;52783;50.502;8.190;2023-07-29T06:35:28;19.10;99.90
66013;DHT22;52783;50.502;8.190;2023-07-29T06:37:54;19.00;99.90
66013;DHT22;52783;50.502;8.190;2023-07-29T06:40:19;19.00;99.90
66013;DHT22;52783;50.502;8.190;2023-07-29T06:42:45;19.10;99.90
66013;DHT22;52783;50.502;8.190;2023-07-29T06:45:11;19.10;99.90
66013;DHT22;52783;50.502;8.190;2023-07-29T06:47:37;19.10;99.90
66013;DHT22;52783;50.502;8.190;2023-07-29T06:50:02;19.20;99.90
66013;DHT22;52783;50.502;8.190;2023-07-29T06:52:28;19.20;99.90
66013;DHT22;52783;50.502;8.190;2023-07-29T06:54:53;19.20;99.90
66013;DHT22;52783;50.502;8.190;2023-07-29T06:57:19;19.20;99.90
66013;DHT22;52783;50.502;8.190;2023-07-29T06:59:44;19.20;99.90
66013;DHT22;52783;50.502;8.190;2023-07-29T07:02:10;19.20;99.90
66013;DHT22;52783;50.502;8.190;2023-07-29T07:04:35;19.20;99.90
66013;DHT22;52783;50.502;8.190;2023-07-29T07:07:01;19.20;99.90
66013;DHT22;52783;50.502;8.190;2023-07-29T07:09:26;19.20;99.90
66013;DHT22;52783;50.502;8.190;2023-07-29T07:11:52;19.10;99.90
66013;DHT22;52783;50.502;8.190;2023-07-29T07:14:18;19.20;99.90
66013;DHT22;52783;50.502;8.190;2023-07-29T07:16:43;19.30;99.90
66013;DHT22;52783;50.502;8.190;2023-07-29T07:19:09;19.40;99.90
66013;DHT22;52783;50.502;8.190;2023-07-29T07:21:35;19.40;99.90
66013;DHT22;52783;50.502;8.190;2023-07-29T07:24:00;19.50;99.90
66013;DHT22;52783;50.502;8.190;2023-07-29T07:26:26;19.50;99.90
66013;DHT22;52783;50.502;8.190;2023-07-29T07:28:51;19.50;99.90
66013;DHT22;52783;50.502;8.190;2023-07-29T07:31:17;19.60;99.90
66013;DHT22;52783;50.502;8.190;2023-07-29T07:33:42;19.60;99.90
66013;DHT22;52783;50.502;8.190;2023-07-29T07:36:08;19.50;99.90
66013;DHT22;52783;50.502;8.190;2023-07-29T07:38:34;19.60;99.90
66013;DHT22;52783;50.502;8.190;2023-07-29T07:40:59;19.70;99.90
66013;DHT22;52783;50.502;8.190;2023-07-29T07:43:25;19.80;99.90
66013;DHT22;52783;50.502;8.190;2023-07-29T07:45:51;20.00;99.90
66013;DHT22;52783;50.502;8.190;2023-07-29T07:48:22;20.20;99.90
66013;DHT22;52783;50.502;8.190;2023-07-29T07:50:48;21.20;99.90
66013;DHT22;52783;50.502;8.190;2023-07-29T07:53:13;21.50;99.90
66013;DHT22;52783;50.502;8.190;2023-07-29T07:55:39;22.10;99.90
66013;DHT22;52783;50.502;8.190;2023-07-29T07:58:04;22.70;99.90
66013;DHT22;52783;50.502;8.190;2023-07-29T08:00:30;23.40;99.90
66013;DHT22;52783;50.502;8.190;2023-07-29T08:02:55;23.90;99.90
66013;DHT22;52783;50.502;8.190;2023-07-29T08:05:20;24.30;99.90
66013;DHT22;52783;50.502;8.190;2023-07-29T08:07:46;24.90;99.90
66013;DHT22;52783;50.502;8.190;2023-07-29T08:10:11;24.30;99.90
66013;DHT22;52783;50.502;8.190;2023-07-29T08:12:37;24.30;99.90
66013;DHT22;52783;50.502;8.190;2023-07-29T08:15:03;24.40;99.90
66013;DHT22;52783;50.502;8.190;2023-07-29T08:17:28;24.90;99.90
66013;DHT22;52783;50.502;8.190;2023-07-29T08:19:54;24.70;99.90
66013;DHT22;52783;50.502;8.190;2023-07-29T08:22:19;24.30;99.90
66013;DHT22;52783;50.502;8.190;2023-07-29T08:24:45;24.20;99.90
66013;DHT22;52783;50.502;8.190;2023-07-29T08:27:11;24.10;99.90
66013;DHT22;52783;50.502;8.190;2023-07-29T08:29:36;25.00;99.90
66013;DHT22;52783;50.502;8.190;2023-07-29T08:32:02;25.50;99.90
66013;DHT22;52783;50.502;8.190;2023-07-29T08:34:27;25.10;99.90
66013;DHT22;52783;50.502;8.190;2023-07-29T08:36:54;24.70;99.90
66013;DHT22;52783;50.502;8.190;2023-07-29T08:39:19;24.80;99.90
66013;DHT22;52783;50.502;8.190;2023-07-29T08:41:53;25.50;99.90
66013;DHT22;52783;50.502;8.190;2023-07-29T08:44:24;25.30;99.90
66013;DHT22;52783;50.502;8.190;2023-07-29T08:46:51;25.20;99.90
66013;DHT22;52783;50.502;8.190;2023-07-29T08:49:18;24.80;99.90
66013;DHT22;52783;50.502;8.190;2023-07-29T08:51:47;24.40;99.90
66013;DHT22;52783;50.502;8.190;2023-07-29T08:54:14;24.20;99.90
66013;DHT22;52783;50.502;8.190;2023-07-29T08:56:41;24.70;99.90
66013;DHT22;52783;50.502;8.190;2023-07-29T08:59:07;24.80;99.90
66013;DHT22;52783;50.502;8.190;2023-07-29T09:01:33;24.90;99.90
66013;DHT22;52783;50.502;8.190;2023-07-29T09:03:59;25.00;99.90
66013;DHT22;52783;50.502;8.190;2023-07-29T09:06:25;24.80;99.90
66013;DHT22;52783;50.502;8.190;2023-07-29T09:08:54;24.60;99.90
66013;DHT22;52783;50.502;8.190;2023-07-29T09:11:22;25.50;99.90
66013;DHT22;52783;50.502;8.190;2023-07-29T09:13:48;25.90;99.90
66013;DHT22;52783;50.502;8.190;2023-07-29T09:16:14;25.90;99.90
66013;DHT22;52783;50.502;8.190;2023-07-29T09:18:39;25.20;99.90
66013;DHT22;52783;50.502;8.190;2023-07-29T09:21:05;24.70;99.90
66013;DHT22;52783;50.502;8.190;2023-07-29T09:23:41;24.90;99.90
66013;DHT22;52783;50.502;8.190;2023-07-29T09:26:08;24.60;99.90
66013;DHT22;52783;50.502;8.190;2023-07-29T09:28:37;24.30;99.90
66013;DHT22;52783;50.502;8.190;2023-07-29T09:31:04;24.10;99.90
66013;DHT22;52783;50.502;8.190;2023-07-29T09:33:32;24.00;99.90
66013;DHT22;52783;50.502;8.190;2023-07-29T09:36:00;23.90;99.90
66013;DHT22;52783;50.502;8.190;2023-07-29T09:38:27;24.00;99.90
66013;DHT22;52783;50.502;8.190;2023-07-29T09:40:56;24.00;99.90
66013;DHT22;52783;50.502;8.190;2023-07-29T09:43:29;23.90;99.90
66013;DHT22;52783;50.502;8.190;2023-07-29T09:45:54;23.90;99.90
66013;DHT22;52783;50.502;8.190;2023-07-29T09:48:23;24.10;99.90
66013;DHT22;52783;50.502;8.190;2023-07-29T09:50:49;24.20;99.90
66013;DHT22;52783;50.502;8.190;2023-07-29T09:53:14;24.70;99.90
66013;DHT22;52783;50.502;8.190;2023-07-29T09:55:49;24.80;99.90
66013;DHT22;52783;50.502;8.190;2023-07-29T09:58:19;24.60;99.90
66013;DHT22;52783;50.502;8.190;2023-07-29T10:00:50;24.50;99.90
66013;DHT22;52783;50.502;8.190;2023-07-29T10:03:16;24.40;99.90
66013;DHT22;52783;50.502;8.190;2023-07-29T10:05:42;24.00;99.90
66013;DHT22;52783;50.502;8.190;2023-07-29T10:08:09;23.70;99.90
66013;DHT22;52783;50.502;8.190;2023-07-29T10:10:35;23.60;99.90
66013;DHT22;52783;50.502;8.190;2023-07-29T10:13:01;23.60;99.90
66013;DHT22;52783;50.502;8.190;2023-07-29T10:15:28;23.60;99.90
66013;DHT22;52783;50.502;8.190;2023-07-29T10:17:54;23.60;99.90
66013;DHT22;52783;50.502;8.190;2023-07-29T10:20:21;23.50;99.90
66013;DHT22;52783;50.502;8.190;2023-07-29T10:22:47;23.00;99.90
66013;DHT22;52783;50.502;8.190;2023-07-29T10:25:17;22.70;99.90
66013;DHT22;52783;50.502;8.190;2023-07-29T10:30:30;22.10;99.90
66013;DHT22;52783;50.502;8.190;2023-07-29T10:32:58;22.10;99.90
66013;DHT22;52783;50.502;8.190;2023-07-29T10:35:24;21.70;99.90
66013;DHT22;52783;50.502;8.190;2023-07-29T10:37:51;21.20;99.90
66013;DHT22;52783;50.502;8.190;2023-07-29T10:40:18;20.50;99.90
66013;DHT22;52783;50.502;8.190;2023-07-29T10:43:02;20.10;99.90
66013;DHT22;52783;50.502;8.190;2023-07-29T10:45:39;19.90;99.90
66013;DHT22;52783;50.502;8.190;2023-07-29T10:48:11;19.80;99.90
66013;DHT22;52783;50.502;8.190;2023-07-29T10:50:37;19.90;99.90
66013;DHT22;52783;50.502;8.190;2023-07-29T10:53:03;20.00;99.90
66013;DHT22;52783;50.502;8.190;2023-07-29T10:55:29;20.10;99.90
66013;DHT22;52783;50.502;8.190;2023-07-29T10:58:10;20.20;99.90
66013;DHT22;52783;50.502;8.190;2023-07-29T11:00:36;20.60;99.90
66013;DHT22;52783;50.502;8.190;2023-07-29T11:03:05;20.90;99.90
66013;DHT22;52783;50.502;8.190;2023-07-29T11:05:44;21.30;99.90
66013;DHT22;52783;50.502;8.190;2023-07-29T11:08:27;21.60;99.90
66013;DHT22;52783;50.502;8.190;2023-07-29T11:11:06;21.70;99.90
66013;DHT22;52783;50.502;8.190;2023-07-29T11:13:34;22.10;99.90
66013;DHT22;52783;50.502;8.190;2023-07-29T11:16:00;22.20;99.90
66013;DHT22;52783;50.502;8.190;2023-07-29T11:18:28;22.30;99.90
66013;DHT22;52783;50.502;8.190;2023-07-29T11:20:55;22.30;99.90
66013;DHT22;52783;50.502;8.190;2023-07-29T11:23:31;22.80;99.90
66013;DHT22;52783;50.502;8.190;2023-07-29T11:25:57;22.70;99.90
66013;DHT22;52783;50.502;8.190;2023-07-29T11:28:23;22.90;99.90
66013;DHT22;52783;50.502;8.190;2023-07-29T11:30:50;23.00;99.90
66013;DHT22;52783;50.502;8.190;2023-07-29T11:33:24;23.00;99.90
66013;DHT22;52783;50.502;8.190;2023-07-29T11:35:51;23.00;99.90
66013;DHT22;52783;50.502;8.190;2023-07-29T11:38:17;23.50;99.90
66013;DHT22;52783;50.502;8.190;2023-07-29T11:40:44;23.60;99.90
66013;DHT22;52783;50.502;8.190;2023-07-29T11:43:18;23.60;99.90
66013;DHT22;52783;50.502;8.190;2023-07-29T11:45:44;23.40;99.90
66013;DHT22;52783;50.502;8.190;2023-07-29T11:48:10;23.40;99.90
66013;DHT22;52783;50.502;8.190;2023-07-29T11:50:36;23.60;99.90
66013;DHT22;52783;50.502;8.190;2023-07-29T11:53:01;23.00;99.90
66013;DHT22;52783;50.502;8.190;2023-07-29T11:55:27;22.60;99.90
66013;DHT22;52783;50.502;8.190;2023-07-29T11:57:52;22.70;99.90
66013;DHT22;52783;50.502;8.190;2023-07-29T12:00:18;22.90;99.90
66013;DHT22;52783;50.502;8.190;2023-07-29T12:02:45;22.60;99.90
66013;DHT22;52783;50.502;8.190;2023-07-29T12:05:12;22.70;99.90
66013;DHT22;52783;50.502;8.190;2023-07-29T12:07:39;22.70;99.90
66013;DHT22;52783;50.502;8.190;2023-07-29T12:10:05;22.50;99.90
66013;DHT22;52783;50.502;8.190;2023-07-29T12:12:31;22.60;99.90
66013;DHT22;52783;50.502;8.190;2023-07-29T12:14:57;22.60;99.90
66013;DHT22;52783;50.502;8.190;2023-07-29T12:17:23;22.80;99.90
66013;DHT22;52783;50.502;8.190;2023-07-29T12:19:48;23.00;99.90
66013;DHT22;52783;50.502;8.190;2023-07-29T12:22:18;23.30;99.90
66013;DHT22;52783;50.502;8.190;2023-07-29T12:24:44;23.50;99.90
66013;DHT22;52783;50.502;8.190;2023-07-29T12:27:13;23.50;99.90
66013;DHT22;52783;50.502;8.190;2023-07-29T12:29:41;23.20;99.90
66013;DHT22;52783;50.502;8.190;2023-07-29T12:32:08;23.10;99.90
66013;DHT22;52783;50.502;8.190;2023-07-29T12:34:36;23.30;99.90
66013;DHT22;52783;50.502;8.190;2023-07-29T12:37:03;23.30;99.90
66013;DHT22;52783;50.502;8.190;2023-07-29T12:39:31;23.70;99.90
66013;DHT22;52783;50.502;8.190;2023-07-29T12:41:58;23.80;99.90
66013;DHT22;52783;50.502;8.190;2023-07-29T12:44:25;23.90;99.90
66013;DHT22;52783;50.502;8.190;2023-07-29T12:46:50;23.70;99.90
66013;DHT22;52783;50.502;8.190;2023-07-29T12:49:17;23.70;99.90
66013;DHT22;52783;50.502;8.190;2023-07-29T12:51:42;23.90;99.90
66013;DHT22;52783;50.502;8.190;2023-07-29T12:54:08;23.80;99.90
66013;DHT22;52783;50.502;8.190;2023-07-29T12:56:33;23.80;99.90
66013;DHT22;52783;50.502;8.190;2023-07-29T12:59:00;24.00;99.90
66013;DHT22;52783;50.502;8.190;2023-07-29T13:01:27;23.90;99.90
66013;DHT22;52783;50.502;8.190;2023-07-29T13:03:53;24.10;99.90
66013;DHT22;52783;50.502;8.190;2023-07-29T13:06:19;24.20;99.90
66013;DHT22;52783;50.502;8.190;2023-07-29T13:08:44;24.40;99.90
66013;DHT22;52783;50.502;8.190;2023-07-29T13:11:11;24.40;99.90
66013;DHT22;52783;50.502;8.190;2023-07-29T13:13:36;24.60;99.90
66013;DHT22;52783;50.502;8.190;2023-07-29T13:16:02;24.00;99.90
66013;DHT22;52783;50.502;8.190;2023-07-29T13:18:28;23.40;99.90
66013;DHT22;52783;50.502;8.190;2023-07-29T13:20:54;22.80;99.90
66013;DHT22;52783;50.502;8.190;2023-07-29T13:23:19;22.10;99.90
66013;DHT22;52783;50.502;8.190;2023-07-29T13:25:45;21.60;99.90
66013;DHT22;52783;50.502;8.190;2023-07-29T13:28:11;21.50;99.90
66013;DHT22;52783;50.502;8.190;2023-07-29T13:30:38;21.50;99.90
66013;DHT22;52783;50.502;8.190;2023-07-29T13:33:04;21.20;99.90
66013;DHT22;52783;50.502;8.190;2023-07-29T13:35:30;21.00;99.90
66013;DHT22;52783;50.502;8.190;2023-07-29T13:37:56;21.10;99.90
66013;DHT22;52783;50.502;8.190;2023-07-29T13:40:21;21.20;99.90
66013;DHT22;52783;50.502;8.190;2023-07-29T13:42:47;21.30;99.90
66013;DHT22;52783;50.502;8.190;2023-07-29T13:45:12;21.40;99.90
66013;DHT22;52783;50.502;8.190;2023-07-29T13:47:38;21.30;99.90
66013;DHT22;52783;50.502;8.190;2023-07-29T13:50:04;21.30;99.90
66013;DHT22;52783;50.502;8.190;2023-07-29T13:52:29;21.50;99.90
66013;DHT22;52783;50.502;8.190;2023-07-29T13:54:55;21.50;99.90
66013;DHT22;52783;50.502;8.190;2023-07-29T13:57:20;21.60;99.90
66013;DHT22;52783;50.502;8.190;2023-07-29T13:59:46;21.70;99.90
66013;DHT22;52783;50.502;8.190;2023-07-29T14:02:13;21.90;99.90
66013;DHT22;52783;50.502;8.190;2023-07-29T14:04:38;21.90;99.90
66013;DHT22;52783;50.502;8.190;2023-07-29T14:07:04;22.00;99.90
66013;DHT22;52783;50.502;8.190;2023-07-29T14:09:29;22.00;99.90
66013;DHT22;52783;50.502;8.190;2023-07-29T14:11:55;22.20;99.90
66013;DHT22;52783;50.502;8.190;2023-07-29T14:14:21;22.20;99.90
66013;DHT22;52783;50.502;8.190;2023-07-29T14:16:46;22.10;99.90
66013;DHT22;52783;50.502;8.190;2023-07-29T14:19:12;22.10;99.90
66013;DHT22;52783;50.502;8.190;2023-07-29T14:21:38;22.10;99.90
66013;DHT22;52783;50.502;8.190;2023-07-29T14:24:04;22.20;99.90
66013;DHT22;52783;50.502;8.190;2023-07-29T14:26:30;22.20;99.90
66013;DHT22;52783;50.502;8.190;2023-07-29T14:28:55;22.40;99.90
66013;DHT22;52783;50.502;8.190;2023-07-29T14:31:21;22.60;99.90
66013;DHT22;52783;50.502;8.190;2023-07-29T14:33:48;22.90;99.90
66013;DHT22;52783;50.502;8.190;2023-07-29T14:36:17;23.00;99.90
66013;DHT22;52783;50.502;8.190;2023-07-29T14:38:42;22.90;99.90
66013;DHT22;52783;50.502;8.190;2023-07-29T14:41:08;23.00;99.90
66013;DHT22;52783;50.502;8.190;2023-07-29T14:43:34;23.10;99.90
66013;DHT22;52783;50.502;8.190;2023-07-29T14:46:01;23.20;99.90
66013;DHT22;52783;50.502;8.190;2023-07-29T14:48:26;23.30;99.90
66013;DHT22;52783;50.502;8.190;2023-07-29T14:50:52;23.20;99.90
66013;DHT22;52783;50.502;8.190;2023-07-29T14:53:17;23.20;99.90
66013;DHT22;52783;50.502;8.190;2023-07-29T14:55:43;23.10;99.90
66013;DHT22;52783;50.502;8.190;2023-07-29T14:58:08;23.10;99.90
66013;DHT22;52783;50.502;8.190;2023-07-29T15:00:34;23.10;99.90
66013;DHT22;52783;50.502;8.190;2023-07-29T15:03:00;23.00;99.90
66013;DHT22;52783;50.502;8.190;2023-07-29T15:05:25;23.10;99.90
66013;DHT22;52783;50.502;8.190;2023-07-29T15:07:51;23.00;99.90
66013;DHT22;52783;50.502;8.190;2023-07-29T15:10:17;23.10;99.90
66013;DHT22;52783;50.502;8.190;2023-07-29T15:12:43;23.10;99.90
66013;DHT22;52783;50.502;8.190;2023-07-29T15:15:10;23.30;99.90
66013;DHT22;52783;50.502;8.190;2023-07-29T15:17:36;23.40;99.90
66013;DHT22;52783;50.502;8.190;2023-07-29T15:20:02;23.50;99.90
66013;DHT22;52783;50.502;8.190;2023-07-29T15:22:31;23.50;99.90
66013;DHT22;52783;50.502;8.190;2023-07-29T15:24:58;23.40;99.90
66013;DHT22;52783;50.502;8.190;2023-07-29T15:27:26;23.40;99.90
66013;DHT22;52783;50.502;8.190;2023-07-29T15:29:51;23.30;99.90
66013;DHT22;52783;50.502;8.190;2023-07-29T15:32:17;23.30;99.90
66013;DHT22;52783;50.502;8.190;2023-07-29T15:34:43;22.90;99.90